createdAt,value
2023-05-02T00:02:17.829Z,55.05
2023-05-02T00:04:46.894Z,55.05
2023-05-02T00:07:15.048Z,55.27
2023-05-02T00:09:43.339Z,55.81
2023-05-02T00:12:11.701Z,55.61
2023-05-02T00:14:39.861Z,56.71
2023-05-02T00:17:08.114Z,56.60
2023-05-02T00:19:40.283Z,56.24
2023-05-02T00:22:08.601Z,57.09
2023-05-02T00:24:36.965Z,57.26
2023-05-02T00:27:06.282Z,57.63
2023-05-02T00:29:34.303Z,58.24
2023-05-02T00:32:02.392Z,58.10
2023-05-02T00:34:33.952Z,58.02
2023-05-02T00:37:01.968Z,58.54
2023-05-02T00:39:30.094Z,58.61
2023-05-02T00:41:59.496Z,59.10
2023-05-02T00:44:28.793Z,59.59
2023-05-02T00:46:57.217Z,58.49
2023-05-02T00:49:25.354Z,58.79
2023-05-02T00:51:55.002Z,59.08
2023-05-02T00:54:23.153Z,59.34
2023-05-02T00:56:51.900Z,59.55
2023-05-02T00:59:20.500Z,58.95
2023-05-02T01:02:10.930Z,58.09
2023-05-02T01:05:10.797Z,57.90
2023-05-02T01:08:10.854Z,57.31
2023-05-02T01:10:53.360Z,56.39
2023-05-02T01:13:27.293Z,56.57
2023-05-02T01:15:58.517Z,57.01
2023-05-02T01:18:32.638Z,56.24
2023-05-02T01:21:04.748Z,55.86
2023-05-02T01:24:34.829Z,55.72
2023-05-02T01:27:05.813Z,56.45
2023-05-02T01:29:36.410Z,56.63
2023-05-02T01:32:08.371Z,57.61
2023-05-02T01:34:40.914Z,57.53
2023-05-02T01:37:13.049Z,57.78
2023-05-02T01:39:44.026Z,57.70
2023-05-02T01:42:13.751Z,58.56
2023-05-02T01:44:43.379Z,57.84
2023-05-02T01:47:13.670Z,57.23
2023-05-02T01:49:44.066Z,57.01
2023-05-02T01:52:14.174Z,57.30
2023-05-02T01:54:43.589Z,56.79
2023-05-02T01:57:13.208Z,57.60
2023-05-02T01:59:43.893Z,58.49
2023-05-02T02:02:14.593Z,59.43
2023-05-02T02:04:46.277Z,59.92
2023-05-02T02:07:15.088Z,59.25
2023-05-02T02:09:43.253Z,58.70
2023-05-02T02:12:35.605Z,59.76
2023-05-02T02:15:10.455Z,59.93
2023-05-02T02:17:55.691Z,59.33
2023-05-02T02:20:23.885Z,60.10
2023-05-02T02:22:53.544Z,60.51
2023-05-02T02:25:22.267Z,60.09
2023-05-02T02:27:52.494Z,59.40
2023-05-02T02:30:20.882Z,59.11
2023-05-02T02:32:49.166Z,58.72
2023-05-02T02:35:17.626Z,58.33
2023-05-02T02:37:48.677Z,58.78
2023-05-02T02:40:34.764Z,58.99
2023-05-02T02:43:28.024Z,59.82
2023-05-02T02:46:18.134Z,59.70
2023-05-02T02:49:25.129Z,59.18
2023-05-02T02:52:15.376Z,57.85
2023-05-02T02:55:30.110Z,57.06
2023-05-02T02:58:19.108Z,56.76
2023-05-02T03:00:48.204Z,56.37
2023-05-02T03:03:19.024Z,56.89
2023-05-02T03:05:47.861Z,56.65
2023-05-02T03:08:16.409Z,56.53
2023-05-02T03:10:44.678Z,57.43
2023-05-02T03:13:12.954Z,58.42
2023-05-02T03:15:53.966Z,58.22
2023-05-02T03:18:25.577Z,57.73
2023-05-02T03:20:55.184Z,57.65
2023-05-02T03:23:23.661Z,57.66
2023-05-02T03:25:53.093Z,57.47
2023-05-02T03:28:22.386Z,57.56
2023-05-02T03:30:50.870Z,56.96
2023-05-02T03:33:20.487Z,56.24
2023-05-02T03:35:48.580Z,54.16
2023-05-02T03:38:16.976Z,52.79
2023-05-02T03:40:45.706Z,51.27
2023-05-02T03:43:14.167Z,50.77
2023-05-02T03:45:42.401Z,49.96
2023-05-02T03:48:10.893Z,48.65
2023-05-02T03:50:39.470Z,47.13
2023-05-02T03:53:09.537Z,46.44
2023-05-02T03:55:46.564Z,45.28
2023-05-02T03:58:18.504Z,44.36
2023-05-02T04:00:47.252Z,42.77
2023-05-02T04:03:16.673Z,41.29
2023-05-02T04:05:46.453Z,40.06
2023-05-02T04:08:17.407Z,39.10
2023-05-02T04:10:46.288Z,37.26
2023-05-02T04:13:15.189Z,34.62
2023-05-02T04:15:46.550Z,34.17
2023-05-02T04:18:16.904Z,33.43
2023-05-02T04:20:45.667Z,33.08
2023-05-02T04:23:16.272Z,32.90
2023-05-02T04:25:55.051Z,32.66
2023-05-02T04:28:26.746Z,33.26
2023-05-02T04:30:56.402Z,33.67
2023-05-02T04:33:26.198Z,32.66
2023-05-02T04:35:55.719Z,31.44
2023-05-02T04:38:24.719Z,30.79
2023-05-02T04:40:53.137Z,30.10
2023-05-02T04:43:26.732Z,30.10
2023-05-02T04:46:01.442Z,30.19
2023-05-02T04:48:33.849Z,30.50
2023-05-02T04:51:02.547Z,30.21
2023-05-02T04:53:32.030Z,30.11
2023-05-02T04:56:00.204Z,30.05
2023-05-02T04:58:28.811Z,29.72
2023-05-02T05:01:03.478Z,29.11
2023-05-02T05:03:33.463Z,29.31
2023-05-02T05:06:02.678Z,29.04
2023-05-02T05:08:31.411Z,28.79
2023-05-02T05:11:00.911Z,28.68
2023-05-02T05:13:29.401Z,28.48
2023-05-02T05:15:57.483Z,28.58
2023-05-02T05:18:29.226Z,29.27
2023-05-02T05:20:57.398Z,30.66
2023-05-02T05:23:25.578Z,29.51
2023-05-02T05:25:53.744Z,28.18
2023-05-02T05:28:21.914Z,27.45
2023-05-02T05:30:51.932Z,27.06
2023-05-02T05:33:23.398Z,26.44
2023-05-02T05:35:52.474Z,26.29
2023-05-02T05:38:20.529Z,26.09
2023-05-02T05:40:51.378Z,26.07
2023-05-02T05:43:19.874Z,26.12
2023-05-02T05:45:48.100Z,26.61
2023-05-02T05:48:16.541Z,26.64
2023-05-02T05:50:47.279Z,27.06
2023-05-02T05:53:16.244Z,26.77
2023-05-02T05:55:45.876Z,26.70
2023-05-02T05:58:14.371Z,27.02
2023-05-02T06:00:43.963Z,26.72
2023-05-02T06:03:12.511Z,26.59
2023-05-02T06:05:42.485Z,26.27
2023-05-02T06:08:10.772Z,26.02
2023-05-02T06:10:38.939Z,25.96
2023-05-02T06:13:07.476Z,25.56
2023-05-02T06:15:39.282Z,25.30
2023-05-02T06:18:08.241Z,25.40
2023-05-02T06:20:37.375Z,25.58
2023-05-02T06:23:05.593Z,25.80
2023-05-02T06:25:34.174Z,25.96
2023-05-02T06:28:02.357Z,25.86
2023-05-02T06:30:30.528Z,25.99
2023-05-02T06:32:58.633Z,26.10
2023-05-02T06:35:26.870Z,25.64
2023-05-02T06:37:55.010Z,25.29
2023-05-02T06:40:23.078Z,25.47
2023-05-02T06:42:51.398Z,25.45
2023-05-02T06:45:19.814Z,25.59
2023-05-02T06:47:47.905Z,26.18
2023-05-02T06:50:16.146Z,26.55
2023-05-02T06:52:44.069Z,26.68
2023-05-02T06:55:12.279Z,26.83
2023-05-02T06:57:40.629Z,26.89
2023-05-02T07:00:09.909Z,27.38
2023-05-02T07:02:38.139Z,27.34
2023-05-02T07:05:06.746Z,27.12
2023-05-02T07:07:35.394Z,26.66
2023-05-02T07:10:03.939Z,25.87
2023-05-02T07:12:32.105Z,25.93
2023-05-02T07:15:00.555Z,25.91
2023-05-02T07:17:29.182Z,26.22
2023-05-02T07:19:57.231Z,25.48
2023-05-02T07:22:25.646Z,25.54
2023-05-02T07:25:02.646Z,25.97
2023-05-02T07:27:31.032Z,26.83
2023-05-02T07:29:59.382Z,27.86
2023-05-02T07:32:28.085Z,28.36
2023-05-02T07:34:57.123Z,29.30
2023-05-02T07:37:25.532Z,31.52
2023-05-02T07:39:53.827Z,32.38
2023-05-02T07:42:21.990Z,32.93
2023-05-02T07:44:50.616Z,32.84
2023-05-02T07:47:18.872Z,32.00
2023-05-02T07:49:51.399Z,32.13
2023-05-02T07:52:20.808Z,33.09
2023-05-02T07:54:50.055Z,32.35
2023-05-02T07:57:19.427Z,32.79
2023-05-02T07:59:48.131Z,31.53
2023-05-02T08:02:20.101Z,30.94
2023-05-02T08:04:49.322Z,31.59
2023-05-02T08:07:17.656Z,31.83
2023-05-02T08:09:46.348Z,33.43
2023-05-02T08:12:14.522Z,33.22
2023-05-02T08:14:42.688Z,33.18
2023-05-02T08:17:11.182Z,33.55
2023-05-02T08:19:39.264Z,32.78
2023-05-02T08:22:07.649Z,31.46
2023-05-02T08:24:35.811Z,31.53
2023-05-02T08:27:04.185Z,32.72
2023-05-02T08:29:33.590Z,32.71
2023-05-02T08:32:01.982Z,31.77
2023-05-02T08:34:30.416Z,31.01
2023-05-02T08:36:58.651Z,31.88
2023-05-02T08:39:26.850Z,32.16
2023-05-02T08:41:55.262Z,31.60
2023-05-02T08:44:23.435Z,31.16
2023-05-02T08:46:53.524Z,30.66
2023-05-02T08:49:23.157Z,29.82
2023-05-02T08:51:52.796Z,29.65
2023-05-02T08:54:21.905Z,30.62
2023-05-02T08:56:50.069Z,31.12
2023-05-02T08:59:18.320Z,30.45
2023-05-02T09:01:52.834Z,30.45
2023-05-02T09:04:24.782Z,31.01
2023-05-02T09:06:53.209Z,31.11
2023-05-02T09:09:21.562Z,30.80
2023-05-02T09:11:52.184Z,30.93
2023-05-02T09:14:20.351Z,30.41
2023-05-02T09:16:48.669Z,31.33
2023-05-02T09:19:26.784Z,30.83
2023-05-02T09:22:01.419Z,29.92
2023-05-02T09:24:30.048Z,29.92
2023-05-02T09:27:01.191Z,29.87
2023-05-02T09:29:35.701Z,29.38
2023-05-02T09:32:05.791Z,29.01
2023-05-02T09:34:34.727Z,27.99
2023-05-02T09:37:05.592Z,27.96
2023-05-02T09:39:33.673Z,28.77
2023-05-02T09:42:03.682Z,29.41
2023-05-02T09:44:39.468Z,30.07
2023-05-02T09:47:08.713Z,30.29
2023-05-02T09:49:45.143Z,29.42
2023-05-02T09:52:15.565Z,29.59
2023-05-02T09:54:46.779Z,29.44
2023-05-02T09:57:15.436Z,29.33
2023-05-02T09:59:55.509Z,28.82
2023-05-02T10:02:25.254Z,29.84
2023-05-02T10:04:59.193Z,29.66
2023-05-02T10:07:28.273Z,29.18
2023-05-02T10:09:58.836Z,29.40
2023-05-02T10:12:30.207Z,29.08
2023-05-02T10:15:04.430Z,28.06
2023-05-02T10:17:42.365Z,27.80
2023-05-02T10:20:16.598Z,27.19
2023-05-02T10:22:47.571Z,27.03
2023-05-02T10:25:16.309Z,27.12
2023-05-02T10:27:44.774Z,27.23
2023-05-02T10:30:14.927Z,26.79
2023-05-02T10:32:46.210Z,26.47
2023-05-02T10:35:16.776Z,26.56
2023-05-02T10:37:46.221Z,27.01
2023-05-02T10:40:14.899Z,27.13
2023-05-02T10:42:46.128Z,25.95
2023-05-02T10:45:32.273Z,26.61
2023-05-02T10:48:13.699Z,26.36
2023-05-02T10:50:51.294Z,26.89
2023-05-02T10:53:26.137Z,27.97
2023-05-02T10:56:22.408Z,28.00
2023-05-02T10:59:14.318Z,27.59
2023-05-02T11:01:43.009Z,27.44
2023-05-02T11:04:11.740Z,28.57
2023-05-02T11:07:01.344Z,28.48
2023-05-02T11:09:29.423Z,27.49
2023-05-02T11:11:58.267Z,27.23
2023-05-02T11:14:26.329Z,27.74
2023-05-02T11:16:57.796Z,27.89
2023-05-02T11:19:29.184Z,28.25
2023-05-02T11:22:20.788Z,27.44
2023-05-02T11:24:50.615Z,28.76
2023-05-02T11:27:30.952Z,27.61
2023-05-02T11:30:07.015Z,28.49
2023-05-02T11:32:48.857Z,28.41
2023-05-02T11:35:26.266Z,27.36
2023-05-02T11:37:54.912Z,27.26
2023-05-02T11:40:23.894Z,25.78
2023-05-02T11:42:52.170Z,25.85
2023-05-02T11:45:21.285Z,25.80
2023-05-02T11:47:51.629Z,26.01
2023-05-02T11:50:20.176Z,26.70
2023-05-02T11:52:48.857Z,27.44
2023-05-02T11:55:17.444Z,27.21
2023-05-02T11:57:45.592Z,26.44
2023-05-02T12:00:15.439Z,26.22
2023-05-02T12:02:45.773Z,26.50
2023-05-02T12:05:15.110Z,26.03
2023-05-02T12:07:45.840Z,26.60
2023-05-02T12:10:14.589Z,26.52
2023-05-02T12:12:43.593Z,27.40
2023-05-02T12:15:13.051Z,27.42
2023-05-02T12:17:43.686Z,27.39
2023-05-02T12:20:12.802Z,27.54
2023-05-02T12:22:41.344Z,27.35
2023-05-02T12:25:09.871Z,26.97
2023-05-02T12:27:38.501Z,27.76
2023-05-02T12:30:07.247Z,27.73
2023-05-02T12:32:38.723Z,28.00
2023-05-02T12:35:23.242Z,27.02
2023-05-02T12:37:52.748Z,26.79
2023-05-02T12:40:21.228Z,27.03
2023-05-02T12:43:04.019Z,27.46
2023-05-02T12:45:36.042Z,27.47
2023-05-02T12:48:27.226Z,27.31
2023-05-02T12:50:58.491Z,27.55
2023-05-02T12:53:43.992Z,25.81
2023-05-02T12:56:13.548Z,26.57
2023-05-02T12:58:48.282Z,27.53
2023-05-02T13:01:17.102Z,27.12
2023-05-02T13:03:45.512Z,27.48
2023-05-02T13:06:13.871Z,26.85
2023-05-02T13:08:41.992Z,26.07
2023-05-02T13:11:10.426Z,26.86
2023-05-02T13:13:38.753Z,26.95
2023-05-02T13:16:08.204Z,27.98
2023-05-02T13:18:36.691Z,27.79
2023-05-02T13:21:05.421Z,27.43
2023-05-02T13:23:33.556Z,27.33
2023-05-02T13:26:01.650Z,27.31
2023-05-02T13:28:33.473Z,26.35
2023-05-02T13:31:01.915Z,27.12
2023-05-02T13:33:30.595Z,27.39
2023-05-02T13:35:58.631Z,27.20
2023-05-02T13:38:27.139Z,27.49
2023-05-02T13:40:55.485Z,28.04
2023-05-02T13:43:24.434Z,27.35
2023-05-02T13:45:53.006Z,27.06
2023-05-02T13:48:21.373Z,26.61
2023-05-02T13:50:49.463Z,27.34
2023-05-02T13:53:17.541Z,27.10
2023-05-02T13:55:45.815Z,27.05
2023-05-02T13:58:14.051Z,27.56
2023-05-02T14:00:42.291Z,26.88
2023-05-02T14:03:11.495Z,26.76
2023-05-02T14:05:43.931Z,26.50
2023-05-02T14:08:12.603Z,26.42
2023-05-02T14:10:40.678Z,26.60
2023-05-02T14:13:08.994Z,27.53
2023-05-02T14:15:37.822Z,28.10
2023-05-02T14:18:06.369Z,27.96
2023-05-02T14:20:34.648Z,27.81
2023-05-02T14:23:03.205Z,28.22
2023-05-02T14:25:32.377Z,28.42
2023-05-02T14:28:01.805Z,25.64
2023-05-02T14:30:31.438Z,24.85
2023-05-02T14:33:00.171Z,24.38
2023-05-02T14:35:28.547Z,25.12
2023-05-02T14:37:56.624Z,25.03
2023-05-02T14:40:24.644Z,24.84
2023-05-02T14:42:52.833Z,25.18
2023-05-02T14:45:21.702Z,24.84
2023-05-02T14:47:50.753Z,24.18
2023-05-02T14:50:18.986Z,24.46
2023-05-02T14:52:47.405Z,24.30
2023-05-02T14:55:16.189Z,24.46
2023-05-02T14:57:44.409Z,24.23
2023-05-02T15:00:13.274Z,25.18
2023-05-02T15:02:41.437Z,25.44
2023-05-02T15:05:12.175Z,25.05
2023-05-02T15:07:40.919Z,24.70
2023-05-02T15:10:09.388Z,24.90
2023-05-02T15:12:37.820Z,25.06
2023-05-02T15:15:06.671Z,25.51
2023-05-02T15:17:35.079Z,24.93
2023-05-02T15:20:04.589Z,25.46
2023-05-02T15:22:33.150Z,24.87
2023-05-02T15:25:03.077Z,24.67
2023-05-02T15:27:32.772Z,24.58
2023-05-02T15:30:03.126Z,24.37
2023-05-02T15:32:31.889Z,24.64
2023-05-02T15:35:00.602Z,25.25
2023-05-02T15:37:28.869Z,24.90
2023-05-02T15:39:57.087Z,25.02
2023-05-02T15:42:25.216Z,24.68
2023-05-02T15:44:54.144Z,25.09
2023-05-02T15:47:22.795Z,25.34
2023-05-02T15:49:53.995Z,24.55
2023-05-02T15:52:22.217Z,24.60
2023-05-02T15:54:51.912Z,24.83
2023-05-02T15:57:19.986Z,25.41
2023-05-02T15:59:48.298Z,26.12
2023-05-02T16:02:16.545Z,25.85
2023-05-02T16:04:44.708Z,26.11
2023-05-02T16:07:12.975Z,25.94
2023-05-02T16:09:42.397Z,25.98
2023-05-02T16:12:11.256Z,26.31
2023-05-02T16:14:39.605Z,26.90
2023-05-02T16:17:07.722Z,27.74
2023-05-02T16:19:35.911Z,27.64
2023-05-02T16:22:03.943Z,27.98
2023-05-02T16:24:32.039Z,27.80
2023-05-02T16:27:00.884Z,28.34
2023-05-02T16:29:29.025Z,28.42
2023-05-02T16:31:57.302Z,28.46
2023-05-02T16:34:25.968Z,28.89
2023-05-02T16:36:53.975Z,28.87
2023-05-02T16:39:22.709Z,28.64
2023-05-02T16:41:51.105Z,28.74
2023-05-02T16:44:19.277Z,29.45
2023-05-02T16:46:47.583Z,29.98
2023-05-02T16:49:15.853Z,30.30
2023-05-02T16:51:44.243Z,30.37
2023-05-02T16:54:12.600Z,30.74
2023-05-02T16:56:42.447Z,31.17
2023-05-02T16:59:10.876Z,31.49
2023-05-02T17:01:38.920Z,32.30
2023-05-02T17:04:07.682Z,32.41
2023-05-02T17:06:36.019Z,32.40
2023-05-02T17:09:04.405Z,32.73
2023-05-02T17:11:32.668Z,33.55
2023-05-02T17:14:00.713Z,33.80
2023-05-02T17:16:29.065Z,34.21
2023-05-02T17:18:57.306Z,33.63
2023-05-02T17:21:25.464Z,33.74
2023-05-02T17:23:54.460Z,34.06
2023-05-02T17:26:22.635Z,34.36
2023-05-02T17:28:53.643Z,35.21
2023-05-02T17:31:22.472Z,35.40
2023-05-02T17:33:51.142Z,35.08
2023-05-02T17:36:19.152Z,34.82
2023-05-02T17:38:47.363Z,34.71
2023-05-02T17:41:15.514Z,35.46
2023-05-02T17:43:43.735Z,35.26
2023-05-02T17:46:11.864Z,34.90
2023-05-02T17:48:44.585Z,34.78
2023-05-02T17:51:12.919Z,35.05
2023-05-02T17:53:42.778Z,34.79
2023-05-02T17:56:10.955Z,34.08
2023-05-02T17:58:39.123Z,33.57
2023-05-02T18:01:08.842Z,33.66
2023-05-02T18:03:38.117Z,33.51
2023-05-02T18:06:06.452Z,33.31
2023-05-02T18:08:34.558Z,33.08
2023-05-02T18:11:03.668Z,33.21
2023-05-02T18:13:32.554Z,33.12
2023-05-02T18:16:01.640Z,33.20
2023-05-02T18:18:29.839Z,33.54
2023-05-02T18:21:00.775Z,33.24
2023-05-02T18:23:29.526Z,33.91
2023-05-02T18:25:57.646Z,33.66
2023-05-02T18:28:25.915Z,33.67
2023-05-02T18:30:54.089Z,33.65
2023-05-02T18:33:22.216Z,33.48
2023-05-02T18:35:54.197Z,33.64
2023-05-02T18:38:22.509Z,33.59
2023-05-02T18:40:53.334Z,33.58
2023-05-02T18:43:23.961Z,32.90
2023-05-02T18:45:52.043Z,33.10
2023-05-02T18:48:20.843Z,33.24
2023-05-02T18:50:49.070Z,33.18
2023-05-02T18:53:17.099Z,33.33
2023-05-02T18:55:45.209Z,33.46
2023-05-02T18:58:13.307Z,32.74
2023-05-02T19:00:50.905Z,33.14
2023-05-02T19:03:19.512Z,32.99
2023-05-02T19:05:51.465Z,32.98
2023-05-02T19:08:19.507Z,32.94
2023-05-02T19:10:47.900Z,33.15
2023-05-02T19:13:16.989Z,33.12
2023-05-02T19:15:45.319Z,33.16
2023-05-02T19:18:14.392Z,33.33
2023-05-02T19:20:42.942Z,33.28
2023-05-02T19:23:19.006Z,33.07
2023-05-02T19:25:47.992Z,32.99
2023-05-02T19:28:17.013Z,33.16
2023-05-02T19:30:45.473Z,33.30
2023-05-02T19:33:16.324Z,33.22
2023-05-02T19:35:44.477Z,33.03
2023-05-02T19:38:12.755Z,33.38
2023-05-02T19:40:43.356Z,33.83
2023-05-02T19:43:11.607Z,33.65
2023-05-02T19:45:39.872Z,33.72
2023-05-02T19:48:08.323Z,33.77
2023-05-02T19:50:37.891Z,33.58
2023-05-02T19:53:09.036Z,33.53
2023-05-02T19:55:37.484Z,33.62
2023-05-02T19:58:08.183Z,33.78
2023-05-02T20:00:36.663Z,34.08
2023-05-02T20:03:05.623Z,34.40
2023-05-02T20:05:34.045Z,34.22
2023-05-02T20:08:02.512Z,33.95
2023-05-02T20:10:31.463Z,33.96
2023-05-02T20:12:59.630Z,34.14
2023-05-02T20:15:27.959Z,33.84
2023-05-02T20:17:58.130Z,34.10
2023-05-02T20:20:26.665Z,34.43
2023-05-02T20:22:55.251Z,34.39
2023-05-02T20:25:24.019Z,34.51
2023-05-02T20:27:52.818Z,34.57
2023-05-02T20:30:21.163Z,34.86
2023-05-02T20:32:50.391Z,34.86
2023-05-02T20:35:18.678Z,34.77
2023-05-02T20:37:46.915Z,34.71
2023-05-02T20:40:15.107Z,34.86
2023-05-02T20:42:43.951Z,34.98
2023-05-02T20:45:12.712Z,35.26
2023-05-02T20:47:41.064Z,35.29
2023-05-02T20:50:09.653Z,35.44
2023-05-02T20:52:39.107Z,35.53
2023-05-02T20:55:08.160Z,35.84
2023-05-02T20:57:36.284Z,35.74
2023-05-02T21:00:05.357Z,35.92
2023-05-02T21:02:33.691Z,35.94
2023-05-02T21:05:02.061Z,36.39
2023-05-02T21:07:30.237Z,36.20
2023-05-02T21:09:58.718Z,36.14
2023-05-02T21:12:26.773Z,36.02
2023-05-02T21:14:54.986Z,35.90
2023-05-02T21:17:23.243Z,35.97
2023-05-02T21:19:53.941Z,35.92
2023-05-02T21:22:22.189Z,36.22
2023-05-02T21:24:51.060Z,36.24
2023-05-02T21:27:19.474Z,36.71
2023-05-02T21:29:47.995Z,36.65
2023-05-02T21:32:16.273Z,36.20
2023-05-02T21:34:44.342Z,36.28
2023-05-02T21:37:12.632Z,36.43
2023-05-02T21:39:40.826Z,36.71
2023-05-02T21:42:08.823Z,36.58
2023-05-02T21:44:37.227Z,36.79
2023-05-02T21:47:05.399Z,37.36
2023-05-02T21:49:33.484Z,38.28
2023-05-02T21:52:03.513Z,39.57
2023-05-02T21:54:32.656Z,40.09
2023-05-02T21:57:02.912Z,39.64
2023-05-02T21:59:31.438Z,39.60
2023-05-02T22:01:59.760Z,40.10
2023-05-02T22:04:28.266Z,40.00
2023-05-02T22:06:56.645Z,39.74
2023-05-02T22:09:25.426Z,39.70
2023-05-02T22:11:53.899Z,39.64
2023-05-02T22:14:30.179Z,39.39
2023-05-02T22:17:05.502Z,39.37
2023-05-02T22:19:34.224Z,39.58
2023-05-02T22:22:02.464Z,39.71
2023-05-02T22:24:31.255Z,40.11
2023-05-02T22:26:59.298Z,40.23
2023-05-02T22:29:27.757Z,40.64
2023-05-02T22:31:56.157Z,41.02
2023-05-02T22:34:24.490Z,40.99
2023-05-02T22:36:52.972Z,40.78
2023-05-02T22:39:21.716Z,40.68
2023-05-02T22:41:49.896Z,41.30
2023-05-02T22:44:18.085Z,41.58
2023-05-02T22:46:46.277Z,41.91
2023-05-02T22:49:14.520Z,41.73
2023-05-02T22:51:42.582Z,41.93
2023-05-02T22:54:10.673Z,42.49
2023-05-02T22:56:38.736Z,42.70
2023-05-02T22:59:07.011Z,42.95
2023-05-02T23:01:35.302Z,43.02
2023-05-02T23:04:03.709Z,43.23
2023-05-02T23:06:32.038Z,43.29
2023-05-02T23:09:00.420Z,43.14
2023-05-02T23:11:29.403Z,43.23
2023-05-02T23:13:57.580Z,42.85
2023-05-02T23:16:25.844Z,43.07
2023-05-02T23:18:54.044Z,43.40
2023-05-02T23:21:22.305Z,43.53
2023-05-02T23:23:50.395Z,43.58
2023-05-02T23:26:18.858Z,43.98
2023-05-02T23:28:47.027Z,44.77
2023-05-02T23:31:15.236Z,45.35
2023-05-02T23:33:43.707Z,45.08
2023-05-02T23:36:11.803Z,45.44
2023-05-02T23:38:40.592Z,46.00
2023-05-02T23:41:09.023Z,46.37
2023-05-02T23:43:37.295Z,46.54
2023-05-02T23:46:06.374Z,46.39
2023-05-02T23:48:34.651Z,46.42
2023-05-02T23:51:02.693Z,46.35
2023-05-02T23:53:30.890Z,46.34
2023-05-02T23:55:59.140Z,46.19
2023-05-02T23:58:27.270Z,46.61
